Woolloomooloo — 9HA2901 — position and weather

sailwx.info

Track history (hours):
 
Tides and Currents Weather Stations Pressure Air Temp Water Temp Dewpoint Dewpoint Depression Visibility Wind Speed Wind Dir Waves Ship Positions

Woolloomooloo

Last reported at 2018-Jan-29 12:34 UTC. Time now 2018-Feb-24 22:05 UTC.
Position N 00°18' W 047°15'.
Warning: this ship's position is 26 days out of date.

Length 224 m; draft 13.3 m.

Type: Cargo ship. MMSI: 256662000.

Date/timePositionNaut miles runAvg speedWind from/ knotsBaromVisibWave heightAir tempDewpointWater temp
2018-Jan-29 12:34N 00°18' W 047°15'413.1
2018-Jan-29 12:16N 00°15' W 047°18'313.0
2018-Jan-29 12:00N 00°12' W 047°20'1712.4
2018-Jan-29 10:36N 00°01' W 047°33'111.8
2018-Jan-29 10:30N 00°00' W 047°34'611.3
2018-Jan-29 10:00S 00°03' W 047°39'510.7
2018-Jan-29 09:31S 00°07' W 047°43'510.1
2018-Jan-29 09:00S 00°10' W 047°47'5 9.4
2018-Jan-29 08:30S 00°13' W 047°50'4 8.3
2018-Jan-29 08:00S 00°15' W 047°54'2 5.0
2018-Jan-29 07:30S 00°17' W 047°56'4 8.9
2018-Jan-29 07:00S 00°19' W 047°60'5 9.4
2018-Jan-29 06:30S 00°21' W 048°04'5 9.5
2018-Jan-29 05:58S 00°23' W 048°08'510.6
2018-Jan-29 05:30S 00°26' W 048°13'5 8.9
2018-Jan-29 05:00S 00°29' W 048°15'2 4.0
2018-Jan-29 04:30S 00°30' W 048°17'2 3.6
2018-Jan-29 03:59S 00°32' W 048°18'2 5.0
2018-Jan-29 03:30S 00°34' W 048°19'3 6.0
2018-Jan-29 03:00S 00°36' W 048°21'3 6.2
2018-Jan-29 02:30S 00°39' W 048°23'3 6.5
2018-Jan-29 02:00S 00°42' W 048°24'3 5.9
2018-Jan-29 01:30S 00°44' W 048°26'3 5.2
2018-Jan-29 01:00S 00°46' W 048°27'3 5.5
2018-Jan-29 00:30S 00°49' W 048°29'3 6.6
2018-Jan-29 00:00S 00°52' W 048°29'4 8.4
2018-Jan-28 23:30S 00°56' W 048°27'5 9.4
2018-Jan-28 22:59S 01°00' W 048°26'4 8.9
2018-Jan-28 22:30S 01°04' W 048°29'5 9.1
2018-Jan-28 21:59S 01°07' W 048°32'2 4.8
2018-Jan-28 21:30S 01°10' W 048°32'3 6.4
2018-Jan-28 21:00S 01°11' W 048°35'510.2
2018-Jan-28 20:30S 01°15' W 048°38'510.8
2018-Jan-28 20:00S 01°20' W 048°41'611.6
2018-Jan-28 19:30S 01°25' W 048°43'5 9.8
2018-Jan-28 19:00S 01°30' W 048°44'0 0.7
2018-Jan-28 18:30S 01°30' W 048°44'0 0.0
2018-Jan-28 18:00S 01°30' W 048°44'0 0.0
2018-Jan-28 17:30S 01°30' W 048°44'0 0.0
2018-Jan-28 17:00S 01°30' W 048°44'0 0.0
2018-Jan-28 16:27S 01°30' W 048°44'0 0.0
2018-Jan-28 16:00S 01°30' W 048°44'0 0.0
2018-Jan-28 15:27S 01°30' W 048°44'0 0.0
2018-Jan-28 15:00S 01°30' W 048°44'0 0.0
2018-Jan-28 14:30S 01°30' W 048°44'0 0.0
2018-Jan-28 14:00S 01°30' W 048°44'0 0.0
2018-Jan-28 13:30S 01°30' W 048°44'0 0.0
2018-Jan-28 13:00S 01°30' W 048°44'0 0.0
2018-Jan-28 12:30S 01°30' W 048°44'0 0.0
2018-Jan-28 11:57S 01°30' W 048°44'0 0.0
2018-Jan-28 11:30S 01°30' W 048°44'0 0.0
2018-Jan-28 11:00S 01°30' W 048°44'0 0.0
2018-Jan-28 10:30S 01°30' W 048°44'0 0.0
2018-Jan-28 10:00S 01°30' W 048°44'0 0.0
2018-Jan-28 09:30S 01°30' W 048°44'0 0.0
2018-Jan-28 09:00S 01°30' W 048°44'0 0.0
2018-Jan-28 08:27S 01°30' W 048°44'0 0.0
2018-Jan-28 08:00S 01°30' W 048°44'0 0.0
2018-Jan-28 07:27S 01°30' W 048°44'0 0.0
2018-Jan-28 07:00S 01°30' W 048°44'0 0.0
2018-Jan-28 06:30S 01°30' W 048°44'0 0.0
2018-Jan-28 06:00S 01°30' W 048°44'0 0.0
2018-Jan-28 05:30S 01°30' W 048°44'0 0.0
2018-Jan-28 05:00S 01°30' W 048°44'0 0.0
2018-Jan-28 04:30S 01°30' W 048°44'0 0.0
2018-Jan-28 03:00S 01°30' W 048°44'0 0.0
2018-Jan-28 02:30S 01°30' W 048°44'0 0.0
2018-Jan-28 01:57S 01°30' W 048°44'0 0.0
2018-Jan-28 01:30S 01°30' W 048°44'0 0.0
2018-Jan-28 01:00S 01°30' W 048°44'0 0.0
2018-Jan-28 00:27S 01°30' W 048°44'0 0.0
2018-Jan-28 00:00S 01°30' W 048°44'0 0.0
2018-Jan-27 23:27S 01°30' W 048°44'0 0.0
2018-Jan-27 23:00S 01°30' W 048°44'0 0.0
2018-Jan-27 22:30S 01°30' W 048°44'0 0.0
2018-Jan-27 22:00S 01°30' W 048°44'0 0.0
2018-Jan-27 21:30S 01°30' W 048°44'0 0.0
2018-Jan-27 20:57S 01°30' W 048°44'0 0.0
2018-Jan-27 20:30S 01°30' W 048°44'0 0.0
2018-Jan-27 20:00S 01°30' W 048°44'0 0.0
2018-Jan-27 19:30S 01°30' W 048°44'0 0.0
2018-Jan-27 19:00S 01°30' W 048°44'0 0.0
2018-Jan-27 18:30S 01°30' W 048°44'0 0.0
2018-Jan-27 18:00S 01°30' W 048°44'0 0.0
2018-Jan-27 17:27S 01°30' W 048°44'0 0.0
2018-Jan-27 17:00S 01°30' W 048°44'0 0.0
2018-Jan-27 16:30S 01°30' W 048°44'0 0.0
2018-Jan-27 16:00S 01°30' W 048°44'0 0.0
2018-Jan-27 15:30S 01°30' W 048°44'0 0.0
2018-Jan-27 15:00S 01°30' W 048°44'0 0.0
2018-Jan-27 14:30S 01°30' W 048°44'0 0.0
2018-Jan-27 14:00S 01°30' W 048°44'0 0.0
2018-Jan-27 13:30S 01°30' W 048°44'0 0.0
2018-Jan-27 13:00S 01°30' W 048°44'0 0.0
2018-Jan-27 12:30S 01°30' W 048°44'0 0.0
2018-Jan-27 12:00S 01°30' W 048°44'0 0.0
2018-Jan-27 11:30S 01°30' W 048°44'0 0.0
2018-Jan-27 11:00S 01°30' W 048°44'0 0.0
2018-Jan-27 10:30S 01°30' W 048°44'0 0.0
2018-Jan-27 10:00S 01°30' W 048°44'0 0.0
2018-Jan-27 09:30S 01°30' W 048°44'0 0.0
2018-Jan-27 09:00S 01°30' W 048°44'0 0.0
2018-Jan-27 08:07S 01°30' W 048°44'0 0.0
2018-Jan-27 07:57S 01°30' W 048°44'0 0.0
2018-Jan-27 07:30S 01°30' W 048°44'0 0.0
2018-Jan-27 07:00S 01°30' W 048°44'0 0.0
2018-Jan-27 06:30S 01°30' W 048°44'0 0.0
2018-Jan-27 06:00S 01°30' W 048°44'0 0.0
2018-Jan-27 05:30S 01°30' W 048°44'0 0.0
2018-Jan-27 05:00S 01°30' W 048°44'0 0.0
2018-Jan-27 04:21S 01°30' W 048°44'0 0.0
2018-Jan-27 04:00S 01°30' W 048°44'0 0.0
2018-Jan-27 03:30S 01°30' W 048°44'0 0.0
2018-Jan-27 02:54S 01°30' W 048°44'0 0.0
2018-Jan-27 02:27S 01°30' W 048°44'0 0.0
2018-Jan-27 02:00S 01°30' W 048°44'0 0.0
2018-Jan-27 01:30S 01°30' W 048°44'0 0.0
2018-Jan-27 01:00S 01°30' W 048°44'0 0.0
2018-Jan-27 00:30S 01°30' W 048°44'0 0.0
2018-Jan-27 00:00S 01°30' W 048°44'0 0.0
2018-Jan-26 23:30S 01°30' W 048°44'0 0.0
2018-Jan-26 23:00S 01°30' W 048°44'0 0.0
2018-Jan-26 22:30S 01°30' W 048°44'0 0.0
2018-Jan-26 22:00S 01°30' W 048°44'0 0.0
2018-Jan-26 21:27S 01°30' W 048°44'0 0.0
2018-Jan-26 20:57S 01°30' W 048°44'0 0.0
2018-Jan-26 20:29S 01°30' W 048°44'0 0.0
2018-Jan-26 20:00S 01°30' W 048°44'0 0.0
2018-Jan-26 19:27S 01°30' W 048°44'0 0.0
2018-Jan-26 18:51S 01°30' W 048°44'0 0.0
2018-Jan-26 18:30S 01°30' W 048°44'0 0.0
2018-Jan-26 17:57S 01°30' W 048°44'0 0.0
2018-Jan-26 17:30S 01°30' W 048°44'0 0.0
2018-Jan-26 17:00S 01°30' W 048°44'0 0.0
2018-Jan-26 16:30S 01°30' W 048°44'0 0.0
2018-Jan-26 16:00S 01°30' W 048°44'0 0.0
2018-Jan-26 15:27S 01°30' W 048°44'0 0.0
2018-Jan-26 15:00S 01°30' W 048°44'0 0.0
2018-Jan-26 14:30S 01°30' W 048°44'0 0.0
2018-Jan-26 14:00S 01°30' W 048°44'0 0.0
2018-Jan-26 13:30S 01°30' W 048°44'0 0.0
2018-Jan-26 13:00S 01°30' W 048°44'0 0.0
2018-Jan-26 12:30S 01°30' W 048°44'0 0.0
2018-Jan-26 12:00S 01°30' W 048°44'0 0.0
2018-Jan-26 11:30S 01°30' W 048°44'0 0.0
2018-Jan-26 11:00S 01°30' W 048°44'0 0.0
2018-Jan-26 10:30S 01°30' W 048°44'0 0.0
2018-Jan-26 10:00S 01°30' W 048°44'0 0.0
2018-Jan-26 09:30S 01°30' W 048°44'0 0.0
2018-Jan-26 08:57S 01°30' W 048°44'0 0.0
2018-Jan-26 08:30S 01°30' W 048°44'0 0.0
2018-Jan-26 08:00S 01°30' W 048°44'0 0.0
2018-Jan-26 07:30S 01°30' W 048°44'0 0.0
2018-Jan-26 07:00S 01°30' W 048°44'0 0.0
2018-Jan-26 06:30S 01°30' W 048°44'0 0.0
2018-Jan-26 05:57S 01°30' W 048°44'0 0.0
2018-Jan-26 05:30S 01°30' W 048°44'0 0.0
2018-Jan-26 05:00S 01°30' W 048°44'0 0.0
2018-Jan-26 04:27S 01°30' W 048°44'0 0.0
2018-Jan-26 04:00S 01°30' W 048°44'0 0.0
2018-Jan-26 03:30S 01°30' W 048°44'0 0.0
2018-Jan-26 03:00S 01°30' W 048°44'0 0.0
2018-Jan-26 02:30S 01°30' W 048°44'0 0.0
2018-Jan-26 01:57S 01°30' W 048°44'0 0.0
2018-Jan-26 01:30S 01°30' W 048°44'0 0.0
2018-Jan-26 01:00S 01°30' W 048°44'0 0.0
2018-Jan-26 00:29S 01°30' W 048°44'0 0.0
2018-Jan-26 00:00S 01°30' W 048°44'0 0.0
2018-Jan-25 23:24S 01°30' W 048°44'0 0.0
2018-Jan-25 23:00S 01°30' W 048°44'0 0.0
2018-Jan-25 22:30S 01°30' W 048°44'0 0.0
2018-Jan-25 22:00S 01°30' W 048°44'0 0.0
2018-Jan-25 21:30S 01°30' W 048°44'0 0.0
2018-Jan-25 21:00S 01°30' W 048°44'0 0.0
2018-Jan-25 20:27S 01°30' W 048°44'0 0.0
2018-Jan-25 20:00S 01°30' W 048°44'0 0.0
2018-Jan-25 19:30S 01°30' W 048°44'0 0.0
2018-Jan-25 19:00S 01°30' W 048°44'0 0.0
2018-Jan-25 18:30S 01°30' W 048°44'0 0.0
2018-Jan-25 18:00S 01°30' W 048°44'0 0.0
2018-Jan-25 17:30S 01°30' W 048°44'0 0.0
2018-Jan-25 17:00S 01°30' W 048°44'0 0.0
2018-Jan-25 16:27S 01°30' W 048°44'0 0.0
2018-Jan-25 16:00S 01°30' W 048°44'0 0.0
2018-Jan-25 15:27S 01°30' W 048°44'0 0.0
2018-Jan-25 15:00S 01°30' W 048°44'0 0.0
2018-Jan-25 14:30S 01°30' W 048°44'0 0.0
2018-Jan-25 14:00S 01°30' W 048°44'0 0.0
2018-Jan-25 13:30S 01°30' W 048°44'0 0.0
2018-Jan-25 13:00S 01°30' W 048°44'0 0.0
2018-Jan-25 12:27S 01°30' W 048°44'0 0.0
2018-Jan-25 12:00S 01°30' W 048°44'0 0.0
2018-Jan-25 11:30S 01°30' W 048°44'0 0.0
2018-Jan-25 10:57S 01°30' W 048°44'0 0.0
2018-Jan-25 10:27S 01°30' W 048°44'0 0.0
2018-Jan-25 10:00S 01°30' W 048°44'0 0.0
2018-Jan-25 09:30S 01°30' W 048°44'0 0.0
2018-Jan-25 09:00S 01°30' W 048°44'0 0.0
2018-Jan-25 08:30S 01°30' W 048°44'0 0.0
2018-Jan-25 08:00S 01°30' W 048°44'0 0.0
2018-Jan-25 07:30S 01°30' W 048°44'0 0.0
2018-Jan-25 06:54S 01°30' W 048°44'0 0.0
2018-Jan-25 06:24S 01°30' W 048°44'0 0.0
2018-Jan-25 06:00S 01°30' W 048°44'0 0.0
2018-Jan-25 05:30S 01°30' W 048°44'0 0.0
2018-Jan-25 04:57S 01°30' W 048°44'0 0.0
2018-Jan-25 04:30S 01°30' W 048°44'0 0.0
2018-Jan-25 04:00S 01°30' W 048°44'0 0.0
2018-Jan-25 03:30S 01°30' W 048°44'0 0.0
2018-Jan-25 03:00S 01°30' W 048°44'0 0.0
2018-Jan-25 02:30S 01°30' W 048°44'0 0.0
2018-Jan-25 02:00S 01°30' W 048°44'0 0.0
2018-Jan-25 01:30S 01°30' W 048°44'0 0.0
2018-Jan-25 01:00S 01°30' W 048°44'0 0.0
2018-Jan-25 00:30S 01°30' W 048°44'0 0.0
2018-Jan-25 00:00S 01°30' W 048°44'0 0.0
2018-Jan-24 23:30S 01°30' W 048°44'0 0.0
2018-Jan-24 23:00S 01°30' W 048°44'0 0.0
2018-Jan-24 22:30S 01°30' W 048°44'0 0.0
2018-Jan-24 22:00S 01°30' W 048°44'0 0.0
2018-Jan-24 21:30S 01°30' W 048°44'0 0.0
2018-Jan-24 21:00S 01°30' W 048°44'0 0.0
2018-Jan-24 20:30S 01°30' W 048°44'0 0.0
2018-Jan-24 20:00S 01°30' W 048°44'0 0.0
2018-Jan-24 19:30S 01°30' W 048°44'0 0.0
2018-Jan-24 19:00S 01°30' W 048°44'0 0.0
2018-Jan-24 18:30S 01°30' W 048°44'0 0.0
2018-Jan-24 18:00S 01°30' W 048°44'0 0.0
2018-Jan-24 17:30S 01°30' W 048°44'0 0.0
2018-Jan-24 17:00S 01°30' W 048°44'0 0.0
2018-Jan-24 16:30S 01°30' W 048°44'0 0.0
2018-Jan-24 16:00S 01°30' W 048°44'0 0.0
2018-Jan-24 15:30S 01°30' W 048°44'0 0.0
2018-Jan-24 15:00S 01°30' W 048°44'0 0.0
2018-Jan-24 14:30S 01°30' W 048°44'0 0.0
2018-Jan-24 14:00S 01°30' W 048°44'0 0.0
2018-Jan-24 13:30S 01°30' W 048°44'0 0.0
2018-Jan-24 13:00S 01°30' W 048°44'0 0.0
2018-Jan-24 12:30S 01°30' W 048°44'0 0.0
2018-Jan-24 12:00S 01°30' W 048°44'0 0.0
2018-Jan-24 11:27S 01°30' W 048°44'0 0.0
2018-Jan-24 11:00S 01°30' W 048°44'0 0.0
2018-Jan-24 10:30S 01°30' W 048°44'0 0.0
2018-Jan-24 10:00S 01°30' W 048°44'0 0.0
2018-Jan-24 09:30S 01°30' W 048°44'0 0.0
2018-Jan-24 08:57S 01°30' W 048°44'0 0.0
2018-Jan-24 08:30S 01°30' W 048°44'0 0.0
2018-Jan-24 08:00S 01°30' W 048°44'0 0.0
2018-Jan-24 07:30S 01°30' W 048°44'0 0.0
2018-Jan-24 07:00S 01°30' W 048°44'0 0.0
2018-Jan-24 06:27S 01°30' W 048°44'1 1.4
2018-Jan-24 06:00S 01°30' W 048°45'510.2
2018-Jan-24 05:30S 01°26' W 048°43'714.1
2018-Jan-24 05:00S 01°20' W 048°39'714.6
2018-Jan-24 04:30S 01°14' W 048°35'612.2
2018-Jan-24 04:00S 01°09' W 048°31'4 6.7
2018-Jan-24 03:29S 01°06' W 048°30'0 0.2
2018-Jan-24 02:59S 01°06' W 048°30'0 0.1
2018-Jan-24 02:29S 01°06' W 048°30'0 0.3
2018-Jan-24 01:59S 01°06' W 048°30'0 0.1
2018-Jan-24 01:29S 01°06' W 048°30'0 0.0
2018-Jan-24 00:59S 01°06' W 048°30'0 0.0
2018-Jan-24 00:29S 01°06' W 048°30'0 0.0
2018-Jan-23 23:59S 01°06' W 048°30'0 0.0
2018-Jan-23 23:29S 01°06' W 048°30'0 0.1
2018-Jan-23 22:26S 01°06' W 048°30'0 0.3
2018-Jan-23 21:50S 01°06' W 048°30'0 0.1
2018-Jan-23 21:29S 01°06' W 048°30'0 0.0
2018-Jan-23 20:59S 01°06' W 048°30'0 0.0
2018-Jan-23 20:29S 01°06' W 048°30'0 0.1
2018-Jan-23 19:59S 01°06' W 048°30'0 0.0
2018-Jan-23 19:29S 01°06' W 048°30'0 0.0
2018-Jan-23 18:59S 01°06' W 048°30'0 0.0
2018-Jan-23 18:23S 01°06' W 048°30'0 0.1
2018-Jan-23 17:59S 01°06' W 048°30'0 0.0
2018-Jan-23 17:26S 01°06' W 048°30'0 0.9
2018-Jan-23 17:01S 01°05' W 048°30'3 6.7
2018-Jan-23 16:31S 01°02' W 048°28'510.2
2018-Jan-23 15:59S 00°57' W 048°26'1011.0
2018-Jan-23 15:06S 00°48' W 048°28'215.2
2018-Jan-23 14:59S 00°46' W 048°27'714.3
2018-Jan-23 14:30S 00°40' W 048°24'714.3
2018-Jan-23 14:00S 00°34' W 048°20'714.2
2018-Jan-23 13:31S 00°29' W 048°16'1013.4
2018-Jan-23 12:48S 00°22' W 048°08'413.6
2018-Jan-23 12:30S 00°20' W 048°05'713.2
2018-Jan-23 12:01S 00°18' W 047°59'612.2
2018-Jan-23 11:30S 00°15' W 047°54'612.7
2018-Jan-23 11:00S 00°09' W 047°50'612.3
2018-Jan-23 10:30S 00°06' W 047°45'612.5
2018-Jan-23 10:00S 00°02' W 047°40'612.7
2018-Jan-23 09:30N 00°02' W 047°35'  
Track history (hours):
 
Tides and Currents Weather Stations Pressure Air Temp Water Temp Dewpoint Dewpoint Depression Visibility Wind Speed Wind Dir Waves Ship Positions

Woolloomooloo

Last reported at 2018-Jan-29 12:34 UTC. Time now 2018-Feb-24 22:05 UTC.
Position N 00°18' W 047°15'.
Warning: this ship's position is 26 days out of date.

Length 224 m; draft 13.3 m.

Type: Cargo ship. MMSI: 256662000.

Date/timePositionNaut miles runAvg speedWind from/ knotsBaromVisibWave heightAir tempDewpointWater temp
2018-Jan-29 12:34N 00°18' W 047°15'413.1
2018-Jan-29 12:16N 00°15' W 047°18'313.0
2018-Jan-29 12:00N 00°12' W 047°20'1712.4
2018-Jan-29 10:36N 00°01' W 047°33'111.8
2018-Jan-29 10:30N 00°00' W 047°34'611.3
2018-Jan-29 10:00S 00°03' W 047°39'510.7
2018-Jan-29 09:31S 00°07' W 047°43'510.1
2018-Jan-29 09:00S 00°10' W 047°47'5 9.4
2018-Jan-29 08:30S 00°13' W 047°50'4 8.3
2018-Jan-29 08:00S 00°15' W 047°54'2 5.0
2018-Jan-29 07:30S 00°17' W 047°56'4 8.9
2018-Jan-29 07:00S 00°19' W 047°60'5 9.4
2018-Jan-29 06:30S 00°21' W 048°04'5 9.5
2018-Jan-29 05:58S 00°23' W 048°08'510.6
2018-Jan-29 05:30S 00°26' W 048°13'5 8.9
2018-Jan-29 05:00S 00°29' W 048°15'2 4.0
2018-Jan-29 04:30S 00°30' W 048°17'2 3.6
2018-Jan-29 03:59S 00°32' W 048°18'2 5.0
2018-Jan-29 03:30S 00°34' W 048°19'3 6.0
2018-Jan-29 03:00S 00°36' W 048°21'3 6.2
2018-Jan-29 02:30S 00°39' W 048°23'3 6.5
2018-Jan-29 02:00S 00°42' W 048°24'3 5.9
2018-Jan-29 01:30S 00°44' W 048°26'3 5.2
2018-Jan-29 01:00S 00°46' W 048°27'3 5.5
2018-Jan-29 00:30S 00°49' W 048°29'3 6.6
2018-Jan-29 00:00S 00°52' W 048°29'4 8.4
2018-Jan-28 23:30S 00°56' W 048°27'5 9.4
2018-Jan-28 22:59S 01°00' W 048°26'4 8.9
2018-Jan-28 22:30S 01°04' W 048°29'5 9.1
2018-Jan-28 21:59S 01°07' W 048°32'2 4.8
2018-Jan-28 21:30S 01°10' W 048°32'3 6.4
2018-Jan-28 21:00S 01°11' W 048°35'510.2
2018-Jan-28 20:30S 01°15' W 048°38'510.8
2018-Jan-28 20:00S 01°20' W 048°41'611.6
2018-Jan-28 19:30S 01°25' W 048°43'5 9.8
2018-Jan-28 19:00S 01°30' W 048°44'0 0.7
2018-Jan-28 18:30S 01°30' W 048°44'0 0.0
2018-Jan-28 18:00S 01°30' W 048°44'0 0.0
2018-Jan-28 17:30S 01°30' W 048°44'0 0.0
2018-Jan-28 17:00S 01°30' W 048°44'0 0.0
2018-Jan-28 16:27S 01°30' W 048°44'0 0.0
2018-Jan-28 16:00S 01°30' W 048°44'0 0.0
2018-Jan-28 15:27S 01°30' W 048°44'0 0.0
2018-Jan-28 15:00S 01°30' W 048°44'0 0.0
2018-Jan-28 14:30S 01°30' W 048°44'0 0.0
2018-Jan-28 14:00S 01°30' W 048°44'0 0.0
2018-Jan-28 13:30S 01°30' W 048°44'0 0.0
2018-Jan-28 13:00S 01°30' W 048°44'0 0.0
2018-Jan-28 12:30S 01°30' W 048°44'0 0.0
2018-Jan-28 11:57S 01°30' W 048°44'0 0.0
2018-Jan-28 11:30S 01°30' W 048°44'0 0.0
2018-Jan-28 11:00S 01°30' W 048°44'0 0.0
2018-Jan-28 10:30S 01°30' W 048°44'0 0.0
2018-Jan-28 10:00S 01°30' W 048°44'0 0.0
2018-Jan-28 09:30S 01°30' W 048°44'0 0.0
2018-Jan-28 09:00S 01°30' W 048°44'0 0.0
2018-Jan-28 08:27S 01°30' W 048°44'0 0.0
2018-Jan-28 08:00S 01°30' W 048°44'0 0.0
2018-Jan-28 07:27S 01°30' W 048°44'0 0.0
2018-Jan-28 07:00S 01°30' W 048°44'0 0.0
2018-Jan-28 06:30S 01°30' W 048°44'0 0.0
2018-Jan-28 06:00S 01°30' W 048°44'0 0.0
2018-Jan-28 05:30S 01°30' W 048°44'0 0.0
2018-Jan-28 05:00S 01°30' W 048°44'0 0.0
2018-Jan-28 04:30S 01°30' W 048°44'0 0.0
2018-Jan-28 03:00S 01°30' W 048°44'0 0.0
2018-Jan-28 02:30S 01°30' W 048°44'0 0.0
2018-Jan-28 01:57S 01°30' W 048°44'0 0.0
2018-Jan-28 01:30S 01°30' W 048°44'0 0.0
2018-Jan-28 01:00S 01°30' W 048°44'0 0.0
2018-Jan-28 00:27S 01°30' W 048°44'0 0.0
2018-Jan-28 00:00S 01°30' W 048°44'0 0.0
2018-Jan-27 23:27S 01°30' W 048°44'0 0.0
2018-Jan-27 23:00S 01°30' W 048°44'0 0.0
2018-Jan-27 22:30S 01°30' W 048°44'0 0.0
2018-Jan-27 22:00S 01°30' W 048°44'0 0.0
2018-Jan-27 21:30S 01°30' W 048°44'0 0.0
2018-Jan-27 20:57S 01°30' W 048°44'0 0.0
2018-Jan-27 20:30S 01°30' W 048°44'0 0.0
2018-Jan-27 20:00S 01°30' W 048°44'0 0.0
2018-Jan-27 19:30S 01°30' W 048°44'0 0.0
2018-Jan-27 19:00S 01°30' W 048°44'0 0.0
2018-Jan-27 18:30S 01°30' W 048°44'0 0.0
2018-Jan-27 18:00S 01°30' W 048°44'0 0.0
2018-Jan-27 17:27S 01°30' W 048°44'0 0.0
2018-Jan-27 17:00S 01°30' W 048°44'0 0.0
2018-Jan-27 16:30S 01°30' W 048°44'0 0.0
2018-Jan-27 16:00S 01°30' W 048°44'0 0.0
2018-Jan-27 15:30S 01°30' W 048°44'0 0.0
2018-Jan-27 15:00S 01°30' W 048°44'0 0.0
2018-Jan-27 14:30S 01°30' W 048°44'0 0.0
2018-Jan-27 14:00S 01°30' W 048°44'0 0.0
2018-Jan-27 13:30S 01°30' W 048°44'0 0.0
2018-Jan-27 13:00S 01°30' W 048°44'0 0.0
2018-Jan-27 12:30S 01°30' W 048°44'0 0.0
2018-Jan-27 12:00S 01°30' W 048°44'0 0.0
2018-Jan-27 11:30S 01°30' W 048°44'0 0.0
2018-Jan-27 11:00S 01°30' W 048°44'0 0.0
2018-Jan-27 10:30S 01°30' W 048°44'0 0.0
2018-Jan-27 10:00S 01°30' W 048°44'0 0.0
2018-Jan-27 09:30S 01°30' W 048°44'0 0.0
2018-Jan-27 09:00S 01°30' W 048°44'0 0.0
2018-Jan-27 08:07S 01°30' W 048°44'0 0.0
2018-Jan-27 07:57S 01°30' W 048°44'0 0.0
2018-Jan-27 07:30S 01°30' W 048°44'0 0.0
2018-Jan-27 07:00S 01°30' W 048°44'0 0.0
2018-Jan-27 06:30S 01°30' W 048°44'0 0.0
2018-Jan-27 06:00S 01°30' W 048°44'0 0.0
2018-Jan-27 05:30S 01°30' W 048°44'0 0.0
2018-Jan-27 05:00S 01°30' W 048°44'0 0.0
2018-Jan-27 04:21S 01°30' W 048°44'0 0.0
2018-Jan-27 04:00S 01°30' W 048°44'0 0.0
2018-Jan-27 03:30S 01°30' W 048°44'0 0.0
2018-Jan-27 02:54S 01°30' W 048°44'0 0.0
2018-Jan-27 02:27S 01°30' W 048°44'0 0.0
2018-Jan-27 02:00S 01°30' W 048°44'0 0.0
2018-Jan-27 01:30S 01°30' W 048°44'0 0.0
2018-Jan-27 01:00S 01°30' W 048°44'0 0.0
2018-Jan-27 00:30S 01°30' W 048°44'0 0.0
2018-Jan-27 00:00S 01°30' W 048°44'0 0.0
2018-Jan-26 23:30S 01°30' W 048°44'0 0.0
2018-Jan-26 23:00S 01°30' W 048°44'0 0.0
2018-Jan-26 22:30S 01°30' W 048°44'0 0.0
2018-Jan-26 22:00S 01°30' W 048°44'0 0.0
2018-Jan-26 21:27S 01°30' W 048°44'0 0.0
2018-Jan-26 20:57S 01°30' W 048°44'0 0.0
2018-Jan-26 20:29S 01°30' W 048°44'0 0.0
2018-Jan-26 20:00S 01°30' W 048°44'0 0.0
2018-Jan-26 19:27S 01°30' W 048°44'0 0.0
2018-Jan-26 18:51S 01°30' W 048°44'0 0.0
2018-Jan-26 18:30S 01°30' W 048°44'0 0.0
2018-Jan-26 17:57S 01°30' W 048°44'0 0.0
2018-Jan-26 17:30S 01°30' W 048°44'0 0.0
2018-Jan-26 17:00S 01°30' W 048°44'0 0.0
2018-Jan-26 16:30S 01°30' W 048°44'0 0.0
2018-Jan-26 16:00S 01°30' W 048°44'0 0.0
2018-Jan-26 15:27S 01°30' W 048°44'0 0.0
2018-Jan-26 15:00S 01°30' W 048°44'0 0.0
2018-Jan-26 14:30S 01°30' W 048°44'0 0.0
2018-Jan-26 14:00S 01°30' W 048°44'0 0.0
2018-Jan-26 13:30S 01°30' W 048°44'0 0.0
2018-Jan-26 13:00S 01°30' W 048°44'0 0.0
2018-Jan-26 12:30S 01°30' W 048°44'0 0.0
2018-Jan-26 12:00S 01°30' W 048°44'0 0.0
2018-Jan-26 11:30S 01°30' W 048°44'0 0.0
2018-Jan-26 11:00S 01°30' W 048°44'0 0.0
2018-Jan-26 10:30S 01°30' W 048°44'0 0.0
2018-Jan-26 10:00S 01°30' W 048°44'0 0.0
2018-Jan-26 09:30S 01°30' W 048°44'0 0.0
2018-Jan-26 08:57S 01°30' W 048°44'0 0.0
2018-Jan-26 08:30S 01°30' W 048°44'0 0.0
2018-Jan-26 08:00S 01°30' W 048°44'0 0.0
2018-Jan-26 07:30S 01°30' W 048°44'0 0.0
2018-Jan-26 07:00S 01°30' W 048°44'0 0.0
2018-Jan-26 06:30S 01°30' W 048°44'0 0.0
2018-Jan-26 05:57S 01°30' W 048°44'0 0.0
2018-Jan-26 05:30S 01°30' W 048°44'0 0.0
2018-Jan-26 05:00S 01°30' W 048°44'0 0.0
2018-Jan-26 04:27S 01°30' W 048°44'0 0.0
2018-Jan-26 04:00S 01°30' W 048°44'0 0.0
2018-Jan-26 03:30S 01°30' W 048°44'0 0.0
2018-Jan-26 03:00S 01°30' W 048°44'0 0.0
2018-Jan-26 02:30S 01°30' W 048°44'0 0.0
2018-Jan-26 01:57S 01°30' W 048°44'0 0.0
2018-Jan-26 01:30S 01°30' W 048°44'0 0.0
2018-Jan-26 01:00S 01°30' W 048°44'0 0.0
2018-Jan-26 00:29S 01°30' W 048°44'0 0.0
2018-Jan-26 00:00S 01°30' W 048°44'0 0.0
2018-Jan-25 23:24S 01°30' W 048°44'0 0.0
2018-Jan-25 23:00S 01°30' W 048°44'0 0.0
2018-Jan-25 22:30S 01°30' W 048°44'0 0.0
2018-Jan-25 22:00S 01°30' W 048°44'0 0.0
2018-Jan-25 21:30S 01°30' W 048°44'0 0.0
2018-Jan-25 21:00S 01°30' W 048°44'0 0.0
2018-Jan-25 20:27S 01°30' W 048°44'0 0.0
2018-Jan-25 20:00S 01°30' W 048°44'0 0.0
2018-Jan-25 19:30S 01°30' W 048°44'0 0.0
2018-Jan-25 19:00S 01°30' W 048°44'0 0.0
2018-Jan-25 18:30S 01°30' W 048°44'0 0.0
2018-Jan-25 18:00S 01°30' W 048°44'0 0.0
2018-Jan-25 17:30S 01°30' W 048°44'0 0.0
2018-Jan-25 17:00S 01°30' W 048°44'0 0.0
2018-Jan-25 16:27S 01°30' W 048°44'0 0.0
2018-Jan-25 16:00S 01°30' W 048°44'0 0.0
2018-Jan-25 15:27S 01°30' W 048°44'0 0.0
2018-Jan-25 15:00S 01°30' W 048°44'0 0.0
2018-Jan-25 14:30S 01°30' W 048°44'0 0.0
2018-Jan-25 14:00S 01°30' W 048°44'0 0.0
2018-Jan-25 13:30S 01°30' W 048°44'0 0.0
2018-Jan-25 13:00S 01°30' W 048°44'0 0.0
2018-Jan-25 12:27S 01°30' W 048°44'0 0.0
2018-Jan-25 12:00S 01°30' W 048°44'0 0.0
2018-Jan-25 11:30S 01°30' W 048°44'0 0.0
2018-Jan-25 10:57S 01°30' W 048°44'0 0.0
2018-Jan-25 10:27S 01°30' W 048°44'0 0.0
2018-Jan-25 10:00S 01°30' W 048°44'0 0.0
2018-Jan-25 09:30S 01°30' W 048°44'0 0.0
2018-Jan-25 09:00S 01°30' W 048°44'0 0.0
2018-Jan-25 08:30S 01°30' W 048°44'0 0.0
2018-Jan-25 08:00S 01°30' W 048°44'0 0.0
2018-Jan-25 07:30S 01°30' W 048°44'0 0.0
2018-Jan-25 06:54S 01°30' W 048°44'0 0.0
2018-Jan-25 06:24S 01°30' W 048°44'0 0.0
2018-Jan-25 06:00S 01°30' W 048°44'0 0.0
2018-Jan-25 05:30S 01°30' W 048°44'0 0.0
2018-Jan-25 04:57S 01°30' W 048°44'0 0.0
2018-Jan-25 04:30S 01°30' W 048°44'0 0.0
2018-Jan-25 04:00S 01°30' W 048°44'0 0.0
2018-Jan-25 03:30S 01°30' W 048°44'0 0.0
2018-Jan-25 03:00S 01°30' W 048°44'0 0.0
2018-Jan-25 02:30S 01°30' W 048°44'0 0.0
2018-Jan-25 02:00S 01°30' W 048°44'0 0.0
2018-Jan-25 01:30S 01°30' W 048°44'0 0.0
2018-Jan-25 01:00S 01°30' W 048°44'0 0.0
2018-Jan-25 00:30S 01°30' W 048°44'0 0.0
2018-Jan-25 00:00S 01°30' W 048°44'0 0.0
2018-Jan-24 23:30S 01°30' W 048°44'0 0.0
2018-Jan-24 23:00S 01°30' W 048°44'0 0.0
2018-Jan-24 22:30S 01°30' W 048°44'0 0.0
2018-Jan-24 22:00S 01°30' W 048°44'0 0.0
2018-Jan-24 21:30S 01°30' W 048°44'0 0.0
2018-Jan-24 21:00S 01°30' W 048°44'0 0.0
2018-Jan-24 20:30S 01°30' W 048°44'0 0.0
2018-Jan-24 20:00S 01°30' W 048°44'0 0.0
2018-Jan-24 19:30S 01°30' W 048°44'0 0.0
2018-Jan-24 19:00S 01°30' W 048°44'0 0.0
2018-Jan-24 18:30S 01°30' W 048°44'0 0.0
2018-Jan-24 18:00S 01°30' W 048°44'0 0.0
2018-Jan-24 17:30S 01°30' W 048°44'0 0.0
2018-Jan-24 17:00S 01°30' W 048°44'0 0.0
2018-Jan-24 16:30S 01°30' W 048°44'0 0.0
2018-Jan-24 16:00S 01°30' W 048°44'0 0.0
2018-Jan-24 15:30S 01°30' W 048°44'0 0.0
2018-Jan-24 15:00S 01°30' W 048°44'0 0.0
2018-Jan-24 14:30S 01°30' W 048°44'0 0.0
2018-Jan-24 14:00S 01°30' W 048°44'0 0.0
2018-Jan-24 13:30S 01°30' W 048°44'0 0.0
2018-Jan-24 13:00S 01°30' W 048°44'0 0.0
2018-Jan-24 12:30S 01°30' W 048°44'0 0.0
2018-Jan-24 12:00S 01°30' W 048°44'0 0.0
2018-Jan-24 11:27S 01°30' W 048°44'0 0.0
2018-Jan-24 11:00S 01°30' W 048°44'0 0.0
2018-Jan-24 10:30S 01°30' W 048°44'0 0.0
2018-Jan-24 10:00S 01°30' W 048°44'0 0.0
2018-Jan-24 09:30S 01°30' W 048°44'0 0.0
2018-Jan-24 08:57S 01°30' W 048°44'0 0.0
2018-Jan-24 08:30S 01°30' W 048°44'0 0.0
2018-Jan-24 08:00S 01°30' W 048°44'0 0.0
2018-Jan-24 07:30S 01°30' W 048°44'0 0.0
2018-Jan-24 07:00S 01°30' W 048°44'0 0.0
2018-Jan-24 06:27S 01°30' W 048°44'1 1.4
2018-Jan-24 06:00S 01°30' W 048°45'510.2
2018-Jan-24 05:30S 01°26' W 048°43'714.1
2018-Jan-24 05:00S 01°20' W 048°39'714.6
2018-Jan-24 04:30S 01°14' W 048°35'612.2
2018-Jan-24 04:00S 01°09' W 048°31'4 6.7
2018-Jan-24 03:29S 01°06' W 048°30'0 0.2
2018-Jan-24 02:59S 01°06' W 048°30'0 0.1
2018-Jan-24 02:29S 01°06' W 048°30'0 0.3
2018-Jan-24 01:59S 01°06' W 048°30'0 0.1
2018-Jan-24 01:29S 01°06' W 048°30'0 0.0
2018-Jan-24 00:59S 01°06' W 048°30'0 0.0
2018-Jan-24 00:29S 01°06' W 048°30'0 0.0
2018-Jan-23 23:59S 01°06' W 048°30'0 0.0
2018-Jan-23 23:29S 01°06' W 048°30'0 0.1
2018-Jan-23 22:26S 01°06' W 048°30'0 0.3
2018-Jan-23 21:50S 01°06' W 048°30'0 0.1
2018-Jan-23 21:29S 01°06' W 048°30'0 0.0
2018-Jan-23 20:59S 01°06' W 048°30'0 0.0
2018-Jan-23 20:29S 01°06' W 048°30'0 0.1
2018-Jan-23 19:59S 01°06' W 048°30'0 0.0
2018-Jan-23 19:29S 01°06' W 048°30'0 0.0
2018-Jan-23 18:59S 01°06' W 048°30'0 0.0
2018-Jan-23 18:23S 01°06' W 048°30'0 0.1
2018-Jan-23 17:59S 01°06' W 048°30'0 0.0
2018-Jan-23 17:26S 01°06' W 048°30'0 0.9
2018-Jan-23 17:01S 01°05' W 048°30'3 6.7
2018-Jan-23 16:31S 01°02' W 048°28'510.2
2018-Jan-23 15:59S 00°57' W 048°26'1011.0
2018-Jan-23 15:06S 00°48' W 048°28'215.2
2018-Jan-23 14:59S 00°46' W 048°27'714.3
2018-Jan-23 14:30S 00°40' W 048°24'714.3
2018-Jan-23 14:00S 00°34' W 048°20'714.2
2018-Jan-23 13:31S 00°29' W 048°16'1013.4
2018-Jan-23 12:48S 00°22' W 048°08'413.6
2018-Jan-23 12:30S 00°20' W 048°05'713.2
2018-Jan-23 12:01S 00°18' W 047°59'612.2
2018-Jan-23 11:30S 00°15' W 047°54'612.7
2018-Jan-23 11:00S 00°09' W 047°50'612.3
2018-Jan-23 10:30S 00°06' W 047°45'612.5
2018-Jan-23 10:00S 00°02' W 047°40'612.7
2018-Jan-23 09:30N 00°02' W 047°35'  

Dump ship's entire track history